Time;durP1;ratioP1;P1;durP2;ratioP2;P2;SDS_P1;SDS_P2;PMS_P1;PMS_P2;Temp;Humidity;BMP_temperature;BMP_pressure;BME280_temperature;BME280_humidity;BME280_pressure;Samples;Min_cycle;Max_cycle;Signal;HPM_P1;HPM_P2
2023/08/05 00:04:22;;;;;;;0.40;0.40;;;;;;;;;;10279430;28;20284;-75
2023/08/05 00:09:23;;;;;;;0.60;0.50;;;;;;;;;;10293041;28;20223;-75
2023/08/05 00:14:24;;;;;;;0.30;0.30;;;;;;;;;;10295534;28;20727;-72
2023/08/05 00:19:25;;;;;;;3.47;0.40;;;;;;;;;;10293145;28;20338;-76
2023/08/05 00:24:27;;;;;;;0.57;0.50;;;;;;;;;;10273513;28;20276;-76
2023/08/05 00:29:28;;;;;;;0.55;0.50;;;;;;;;;;10295228;28;21686;-74
2023/08/05 00:34:29;;;;;;;0.50;0.50;;;;;;;;;;10298507;28;20226;-73
2023/08/05 00:39:31;;;;;;;0.40;0.40;;;;;;;;;;10305532;28;20239;-73
2023/08/05 00:44:32;;;;;;;0.50;0.50;;;;;;;;;;10309051;28;20257;-74
2023/08/05 00:49:33;;;;;;;0.50;0.50;;;;;;;;;;10314637;28;20230;-74
2023/08/05 00:54:34;;;;;;;0.85;0.85;;;;;;;;;;10308214;28;20242;-73
2023/08/05 00:59:35;;;;;;;0.50;0.50;;;;;;;;;;10312355;28;20344;-77
2023/08/05 01:04:37;;;;;;;0.40;0.40;;;;;;;;;;10301614;28;20218;-72
2023/08/05 01:09:38;;;;;;;0.40;0.40;;;;;;;;;;10274384;28;20288;-74
2023/08/05 01:14:39;;;;;;;0.60;0.60;;;;;;;;;;10292890;28;21431;-75
2023/08/05 01:19:41;;;;;;;0.50;0.50;;;;;;;;;;10290422;28;20349;-75
2023/08/05 01:24:52;;;;;;;0.50;0.50;;;;;;;;;;10287542;28;20255;-74
2023/08/05 01:29:53;;;;;;;3.33;0.40;;;;;;;;;;10293679;28;20229;-75
2023/08/05 01:34:54;;;;;;;0.60;0.60;;;;;;;;;;10284958;28;20892;-75
2023/08/05 01:39:55;;;;;;;0.50;0.50;;;;;;;;;;10279065;28;20707;-74
2023/08/05 01:44:57;;;;;;;0.50;0.50;;;;;;;;;;10277747;28;20214;-75
2023/08/05 01:49:58;;;;;;;4.15;0.57;;;;;;;;;;10282848;28;20227;-75
2023/08/05 01:54:59;;;;;;;0.52;0.52;;;;;;;;;;10283000;28;21218;-74
2023/08/05 02:00:00;;;;;;;1.05;0.60;;;;;;;;;;10286358;28;20229;-74
2023/08/05 02:05:01;;;;;;;0.60;0.50;;;;;;;;;;10283597;28;20222;-75
2023/08/05 02:10:03;;;;;;;0.50;0.50;;;;;;;;;;10260732;28;20785;-75
2023/08/05 02:15:04;;;;;;;2.08;0.52;;;;;;;;;;10271891;28;20246;-71
2023/08/05 02:20:06;;;;;;;0.47;0.47;;;;;;;;;;10266508;28;20207;-75
2023/08/05 02:25:07;;;;;;;0.47;0.47;;;;;;;;;;10270637;28;20253;-74
2023/08/05 02:30:08;;;;;;;0.50;0.50;;;;;;;;;;10275376;28;21891;-77
2023/08/05 02:35:09;;;;;;;0.60;0.43;;;;;;;;;;10283862;28;20214;-73
2023/08/05 02:40:10;;;;;;;1.95;0.70;;;;;;;;;;10274379;28;20234;-74
2023/08/05 02:45:12;;;;;;;0.40;0.40;;;;;;;;;;10264157;28;20191;-75
2023/08/05 02:50:14;;;;;;;0.50;0.50;;;;;;;;;;10266325;28;20207;-74
2023/08/05 02:55:15;;;;;;;1.95;0.82;;;;;;;;;;10281826;28;23042;-74
2023/08/05 03:00:16;;;;;;;0.32;0.32;;;;;;;;;;10269010;28;20337;-76
2023/08/05 03:05:17;;;;;;;3.08;0.47;;;;;;;;;;10285180;28;20206;-76
2023/08/05 03:10:18;;;;;;;0.73;0.73;;;;;;;;;;10287489;28;20731;-75
2023/08/05 03:15:21;;;;;;;0.63;0.63;;;;;;;;;;10269866;28;20238;-76
2023/08/05 03:20:26;;;;;;;0.65;0.65;;;;;;;;;;10277147;28;20210;-75
2023/08/05 03:25:31;;;;;;;0.70;0.70;;;;;;;;;;10279754;28;20221;-74
2023/08/05 03:30:37;;;;;;;0.73;0.57;;;;;;;;;;10270441;28;20223;-75
2023/08/05 03:35:43;;;;;;;0.80;0.80;;;;;;;;;;10282300;28;20215;-76
2023/08/05 03:40:45;;;;;;;0.50;0.50;;;;;;;;;;10280222;28;20364;-75
2023/08/05 03:45:51;;;;;;;2.08;0.82;;;;;;;;;;10286538;28;20306;-74
2023/08/05 03:50:52;;;;;;;2.75;0.82;;;;;;;;;;10277837;28;20230;-75
2023/08/05 03:55:53;;;;;;;0.60;0.60;;;;;;;;;;10266620;28;20215;-73
2023/08/05 04:00:55;;;;;;;2.40;1.02;;;;;;;;;;10284336;28;20251;-74
2023/08/05 04:05:56;;;;;;;1.02;0.93;;;;;;;;;;10268873;28;20219;-73
2023/08/05 04:10:57;;;;;;;0.90;0.90;;;;;;;;;;10265748;28;20215;-74
2023/08/05 04:16:03;;;;;;;0.68;0.60;;;;;;;;;;10284559;28;20309;-74
2023/08/05 04:21:05;;;;;;;0.65;0.65;;;;;;;;;;10283804;28;20445;-75
2023/08/05 04:26:06;;;;;;;0.55;0.55;;;;;;;;;;10286779;28;21261;-75
2023/08/05 04:31:07;;;;;;;0.77;0.77;;;;;;;;;;10284566;28;20222;-73
2023/08/05 04:36:08;;;;;;;0.68;0.63;;;;;;;;;;10287181;28;20215;-76
2023/08/05 04:41:09;;;;;;;1.05;1.05;;;;;;;;;;10264175;28;20223;-75
2023/08/05 04:46:11;;;;;;;0.63;0.60;;;;;;;;;;10272831;28;20238;-75
2023/08/05 04:51:12;;;;;;;0.52;0.52;;;;;;;;;;10278236;28;20829;-78
2023/08/05 04:56:13;;;;;;;1.48;0.80;;;;;;;;;;10275655;28;20239;-74
2023/08/05 05:01:14;;;;;;;0.70;0.70;;;;;;;;;;10276922;28;20250;-76
2023/08/05 05:06:15;;;;;;;0.85;0.65;;;;;;;;;;10279937;28;20223;-75
2023/08/05 05:11:16;;;;;;;2.08;0.60;;;;;;;;;;10278483;28;20312;-76
2023/08/05 05:16:17;;;;;;;0.60;0.60;;;;;;;;;;10271033;28;21086;-76
2023/08/05 05:21:18;;;;;;;0.85;0.82;;;;;;;;;;10275585;28;22609;-73
2023/08/05 05:26:19;;;;;;;1.85;0.63;;;;;;;;;;10278709;28;20219;-72
2023/08/05 05:31:21;;;;;;;1.65;1.00;;;;;;;;;;10282350;28;20246;-75
2023/08/05 05:36:22;;;;;;;0.75;0.75;;;;;;;;;;10275633;28;20309;-72
2023/08/05 05:41:23;;;;;;;1.00;0.60;;;;;;;;;;10278354;28;20222;-74
2023/08/05 05:46:25;;;;;;;1.38;0.68;;;;;;;;;;10277639;28;20368;-74
2023/08/05 05:51:26;;;;;;;1.05;0.80;;;;;;;;;;10280540;28;20313;-75
2023/08/05 05:56:27;;;;;;;0.52;0.52;;;;;;;;;;10275731;28;21300;-78
2023/08/05 06:01:28;;;;;;;0.95;0.43;;;;;;;;;;10273150;28;20225;-75
2023/08/05 06:06:30;;;;;;;0.60;0.60;;;;;;;;;;10271920;28;20803;-75
2023/08/05 06:11:32;;;;;;;6.03;0.98;;;;;;;;;;10274672;28;20234;-74
2023/08/05 06:16:33;;;;;;;0.45;0.32;;;;;;;;;;10270364;28;20219;-76
2023/08/05 06:21:35;;;;;;;0.40;0.40;;;;;;;;;;10268085;28;20215;-77
2023/08/05 06:26:36;;;;;;;1.02;0.50;;;;;;;;;;10281793;28;20241;-74
2023/08/05 06:31:37;;;;;;;0.50;0.50;;;;;;;;;;10255329;28;22809;-76
2023/08/05 06:36:38;;;;;;;0.75;0.63;;;;;;;;;;10277874;28;20505;-77
2023/08/05 06:41:39;;;;;;;1.95;0.50;;;;;;;;;;10274996;28;20280;-76
2023/08/05 06:46:41;;;;;;;1.00;0.40;;;;;;;;;;10258197;28;20221;-75
2023/08/05 06:51:42;;;;;;;1.27;0.45;;;;;;;;;;10274655;28;20394;-75
2023/08/05 06:56:43;;;;;;;3.03;0.52;;;;;;;;;;10270233;28;20219;-75
2023/08/05 07:01:44;;;;;;;0.32;0.32;;;;;;;;;;10276558;28;20219;-75
2023/08/05 07:06:45;;;;;;;0.82;0.50;;;;;;;;;;10250821;28;20257;-74
2023/08/05 07:11:46;;;;;;;0.43;0.43;;;;;;;;;;10260308;28;22502;-73
2023/08/05 07:16:47;;;;;;;2.97;0.60;;;;;;;;;;10274158;28;21914;-74
2023/08/05 07:21:50;;;;;;;1.60;0.50;;;;;;;;;;10285417;28;20226;-75
2023/08/05 07:26:51;;;;;;;3.67;0.90;;;;;;;;;;10283041;28;20598;-73
2023/08/05 07:31:52;;;;;;;1.77;0.40;;;;;;;;;;10277892;28;21138;-74
2023/08/05 07:36:53;;;;;;;0.40;0.40;;;;;;;;;;10278100;28;20230;-76
2023/08/05 07:41:54;;;;;;;1.35;0.77;;;;;;;;;;10291980;28;20829;-72
2023/08/05 07:46:56;;;;;;;0.88;0.70;;;;;;;;;;10283334;28;20226;-74
2023/08/05 07:51:57;;;;;;;1.25;0.63;;;;;;;;;;10268879;28;20226;-74
2023/08/05 07:56:58;;;;;;;0.65;0.38;;;;;;;;;;10281683;28;20215;-76
2023/08/05 08:02:00;;;;;;;1.33;0.50;;;;;;;;;;10298922;28;20233;-72
2023/08/05 08:07:01;;;;;;;2.97;0.50;;;;;;;;;;10288863;28;20439;-75
2023/08/05 08:12:03;;;;;;;3.75;0.73;;;;;;;;;;10295510;28;20269;-77
2023/08/05 08:17:04;;;;;;;5.70;0.43;;;;;;;;;;10290354;28;20223;-76
2023/08/05 08:22:05;;;;;;;1.58;0.60;;;;;;;;;;10302980;28;20222;-78
2023/08/05 08:27:06;;;;;;;0.57;0.57;;;;;;;;;;10294302;28;20643;-77
2023/08/05 08:32:08;;;;;;;1.50;0.50;;;;;;;;;;10296236;28;20233;-78
2023/08/05 08:37:10;;;;;;;1.17;0.50;;;;;;;;;;10307065;28;20227;-75
2023/08/05 08:42:11;;;;;;;0.75;0.40;;;;;;;;;;10297017;28;21321;-79
2023/08/05 08:47:12;;;;;;;1.05;1.05;;;;;;;;;;10303853;28;20223;-79
2023/08/05 08:52:18;;;;;;;1.85;0.60;;;;;;;;;;10279903;28;20253;-76
2023/08/05 08:57:19;;;;;;;0.57;0.30;;;;;;;;;;10300886;28;20225;-76
2023/08/05 09:02:23;;;;;;;2.65;0.43;;;;;;;;;;10302142;28;20296;-79
2023/08/05 09:07:27;;;;;;;3.60;0.50;;;;;;;;;;10284089;28;20215;-78
2023/08/05 09:12:31;;;;;;;0.57;0.57;;;;;;;;;;10278292;28;20497;-76
2023/08/05 09:17:39;;;;;;;0.40;0.40;;;;;;;;;;10297647;28;20323;-78
2023/08/05 09:22:40;;;;;;;0.43;0.43;;;;;;;;;;10292144;28;20223;-78
2023/08/05 09:27:47;;;;;;;2.05;1.00;;;;;;;;;;10281368;28;20223;-78
2023/08/05 09:32:50;;;;;;;1.27;0.40;;;;;;;;;;10272563;28;20231;-78
2023/08/05 09:38:12;;;;;;;;;;;;;;;;;;;;;
2023/08/05 09:43:15;;;;;;;0.50;0.35;;;;;;;;;;10288423;28;20246;-76
2023/08/05 09:48:16;;;;;;;2.40;0.40;;;;;;;;;;10286481;28;20262;-76
2023/08/05 09:53:19;;;;;;;0.40;0.40;;;;;;;;;;10298246;28;20314;-75
2023/08/05 09:58:20;;;;;;;4.85;0.52;;;;;;;;;;10281498;28;20795;-75
2023/08/05 10:03:22;;;;;;;0.45;0.45;;;;;;;;;;10275644;28;20244;-72
2023/08/05 10:08:25;;;;;;;0.52;0.40;;;;;;;;;;10294844;28;20906;-77
2023/08/05 10:13:26;;;;;;;3.83;0.50;;;;;;;;;;10276051;28;21135;-75
2023/08/05 10:18:27;;;;;;;1.00;0.80;;;;;;;;;;10262960;28;20214;-74
2023/08/05 10:23:32;;;;;;;1.30;0.50;;;;;;;;;;10279842;28;22743;-75
2023/08/05 10:28:40;;;;;;;2.60;0.32;;;;;;;;;;10299154;28;20219;-76
2023/08/05 10:34:00;;;;;;;0.60;0.60;;;;;;;;;;10285680;28;21790;-78
2023/08/05 10:39:02;;;;;;;0.40;0.40;;;;;;;;;;10294331;28;20608;-77
2023/08/05 10:44:03;;;;;;;0.60;0.60;;;;;;;;;;10281494;28;20223;-75
2023/08/05 10:49:06;;;;;;;0.65;0.40;;;;;;;;;;10272733;28;21839;-76
2023/08/05 10:54:08;;;;;;;3.97;0.50;;;;;;;;;;10267870;28;20988;-78
2023/08/05 10:59:09;;;;;;;0.80;0.80;;;;;;;;;;10283444;28;20233;-77
2023/08/05 11:04:26;;;;;;;1.98;0.57;;;;;;;;;;10286414;28;20222;-75
2023/08/05 11:09:28;;;;;;;0.98;0.47;;;;;;;;;;10287105;28;21177;-78
2023/08/05 11:14:29;;;;;;;1.85;0.47;;;;;;;;;;10215523;28;20359;-76
2023/08/05 11:19:49;;;;;;;1.00;0.50;;;;;;;;;;10222089;28;20311;-76
2023/08/05 11:24:57;;;;;;;2.28;0.50;;;;;;;;;;10210594;28;21282;-76
2023/08/05 11:29:58;;;;;;;1.27;0.40;;;;;;;;;;10222245;28;20228;-77
2023/08/05 11:35:02;;;;;;;0.30;0.30;;;;;;;;;;10215892;28;21247;-76
2023/08/05 11:40:04;;;;;;;0.73;0.60;;;;;;;;;;10214149;28;20212;-77
2023/08/05 11:45:05;;;;;;;0.98;0.30;;;;;;;;;;10213523;28;21024;-77
2023/08/05 11:50:07;;;;;;;0.82;0.55;;;;;;;;;;10217545;28;20329;-77
2023/08/05 11:55:08;;;;;;;0.40;0.40;;;;;;;;;;10222039;28;20223;-77
2023/08/05 12:00:12;;;;;;;0.85;0.43;;;;;;;;;;10222691;28;20220;-76
2023/08/05 12:05:13;;;;;;;1.75;0.40;;;;;;;;;;10212605;28;20316;-76
2023/08/05 12:10:16;;;;;;;0.40;0.40;;;;;;;;;;10214320;28;20718;-77
2023/08/05 12:15:17;;;;;;;0.75;0.68;;;;;;;;;;10264468;28;20604;-75
2023/08/05 12:20:19;;;;;;;0.47;0.47;;;;;;;;;;10243872;28;20330;-78
2023/08/05 12:25:20;;;;;;;0.70;0.70;;;;;;;;;;10248727;28;23131;-77
2023/08/05 12:30:22;;;;;;;4.90;0.60;;;;;;;;;;10245151;28;20835;-78
2023/08/05 12:35:23;;;;;;;1.50;0.32;;;;;;;;;;10239103;28;20398;-78
2023/08/05 12:40:24;;;;;;;0.80;0.40;;;;;;;;;;10255714;28;20349;-80
2023/08/05 12:45:25;;;;;;;0.50;0.30;;;;;;;;;;10262055;28;20224;-77
2023/08/05 12:50:27;;;;;;;0.50;0.40;;;;;;;;;;10257736;28;20606;-74
2023/08/05 12:55:28;;;;;;;0.80;0.40;;;;;;;;;;10260017;28;20917;-75
2023/08/05 13:00:29;;;;;;;0.50;0.50;;;;;;;;;;10248776;28;20223;-77
2023/08/05 13:05:30;;;;;;;0.50;0.50;;;;;;;;;;10256133;28;20330;-75
2023/08/05 13:10:31;;;;;;;1.40;0.40;;;;;;;;;;10241782;28;21377;-77
2023/08/05 13:15:32;;;;;;;0.50;0.40;;;;;;;;;;10215392;28;20236;-74
2023/08/05 13:20:33;;;;;;;0.40;0.40;;;;;;;;;;10202395;28;20315;-75
2023/08/05 13:25:34;;;;;;;0.50;0.40;;;;;;;;;;10208358;28;20224;-73
2023/08/05 13:30:35;;;;;;;1.83;0.52;;;;;;;;;;10194773;28;20224;-74
2023/08/05 13:35:36;;;;;;;0.50;0.50;;;;;;;;;;10213399;28;20729;-77
2023/08/05 13:40:38;;;;;;;2.88;0.45;;;;;;;;;;10223364;28;20343;-75
2023/08/05 13:45:47;;;;;;;1.15;0.60;;;;;;;;;;10225397;28;20305;-76
2023/08/05 13:50:48;;;;;;;1.13;0.40;;;;;;;;;;10215481;28;20219;-75
2023/08/05 13:55:53;;;;;;;1.50;0.60;;;;;;;;;;10203879;28;21571;-77
2023/08/05 14:00:55;;;;;;;1.38;0.50;;;;;;;;;;10213184;28;20617;-75
2023/08/05 14:05:57;;;;;;;0.75;0.47;;;;;;;;;;10215011;28;20221;-75
2023/08/05 14:10:58;;;;;;;0.40;0.40;;;;;;;;;;10216893;28;20298;-75
2023/08/05 14:15:59;;;;;;;0.38;0.30;;;;;;;;;;10291147;28;20228;-75
2023/08/05 14:21:01;;;;;;;0.55;0.40;;;;;;;;;;10291432;28;20220;-72
2023/08/05 14:26:02;;;;;;;0.40;0.40;;;;;;;;;;10292959;28;20222;-76
2023/08/05 14:31:06;;;;;;;1.23;0.63;;;;;;;;;;10287248;28;20222;-78
2023/08/05 14:36:11;;;;;;;0.60;0.60;;;;;;;;;;10284052;28;20226;-75
2023/08/05 14:41:16;;;;;;;0.30;0.30;;;;;;;;;;10293957;28;20242;-76
2023/08/05 14:46:17;;;;;;;0.57;0.57;;;;;;;;;;10294297;28;20219;-77
2023/08/05 14:51:18;;;;;;;2.60;0.55;;;;;;;;;;10280739;28;20364;-74
2023/08/05 14:56:19;;;;;;;0.60;0.60;;;;;;;;;;10295971;28;20215;-76
2023/08/05 15:01:20;;;;;;;0.30;0.30;;;;;;;;;;10280726;28;20658;-75
2023/08/05 15:06:21;;;;;;;0.50;0.50;;;;;;;;;;10297520;28;21455;-76
2023/08/05 15:11:22;;;;;;;0.40;0.40;;;;;;;;;;10293888;28;21103;-76
2023/08/05 15:16:26;;;;;;;1.15;0.70;;;;;;;;;;10289889;28;20300;-75
2023/08/05 15:21:27;;;;;;;0.40;0.40;;;;;;;;;;10280077;28;20763;-74
2023/08/05 15:26:28;;;;;;;0.50;0.50;;;;;;;;;;10290187;28;20980;-76
2023/08/05 15:31:30;;;;;;;0.50;0.50;;;;;;;;;;10292830;28;21269;-74
2023/08/05 15:36:31;;;;;;;0.93;0.32;;;;;;;;;;10291235;28;20307;-74
2023/08/05 15:41:32;;;;;;;0.35;0.35;;;;;;;;;;10289119;28;21861;-75
2023/08/05 15:46:33;;;;;;;1.30;1.20;;;;;;;;;;10289823;28;20505;-76
2023/08/05 15:51:34;;;;;;;1.15;0.40;;;;;;;;;;10290273;28;21787;-75
2023/08/05 15:56:36;;;;;;;0.55;0.55;;;;;;;;;;10286628;28;20253;-77
2023/08/05 16:01:37;;;;;;;0.40;0.40;;;;;;;;;;10291009;28;20942;-74
2023/08/05 16:06:38;;;;;;;0.50;0.50;;;;;;;;;;10293185;28;20219;-75
2023/08/05 16:11:39;;;;;;;1.30;0.45;;;;;;;;;;10288465;28;20339;-73
2023/08/05 16:16:40;;;;;;;0.40;0.40;;;;;;;;;;10290712;28;20766;-74
2023/08/05 16:21:41;;;;;;;1.40;0.60;;;;;;;;;;10286712;28;21514;-75
2023/08/05 16:26:43;;;;;;;0.50;0.50;;;;;;;;;;10292729;28;20220;-77
2023/08/05 16:31:55;;;;;;;0.40;0.40;;;;;;;;;;10295458;28;21797;-77
2023/08/05 16:36:57;;;;;;;0.65;0.60;;;;;;;;;;10289542;28;20249;-73
2023/08/05 16:41:58;;;;;;;0.50;0.50;;;;;;;;;;10293289;28;20219;-75
2023/08/05 16:46:59;;;;;;;3.45;0.60;;;;;;;;;;10295806;28;20211;-77
2023/08/05 16:52:00;;;;;;;0.50;0.50;;;;;;;;;;10275825;28;20218;-76
2023/08/05 16:57:02;;;;;;;0.30;0.30;;;;;;;;;;10267162;28;23698;-72
2023/08/05 17:02:03;;;;;;;1.58;0.50;;;;;;;;;;10296581;28;20230;-74
2023/08/05 17:07:04;;;;;;;0.40;0.40;;;;;;;;;;10293838;28;20218;-76
2023/08/05 17:12:07;;;;;;;0.38;0.38;;;;;;;;;;10301869;28;20227;-76
2023/08/05 17:17:08;;;;;;;4.07;0.60;;;;;;;;;;10306417;28;20223;-76
2023/08/05 17:22:09;;;;;;;0.43;0.40;;;;;;;;;;10301452;28;20230;-77
2023/08/05 17:27:10;;;;;;;2.00;0.52;;;;;;;;;;10288153;28;20288;-78
2023/08/05 17:32:11;;;;;;;0.50;0.50;;;;;;;;;;10283542;28;20230;-78
2023/08/05 17:37:12;;;;;;;1.50;0.70;;;;;;;;;;10295052;28;20253;-77
2023/08/05 17:42:13;;;;;;;0.50;0.50;;;;;;;;;;10282409;28;20246;-77
2023/08/05 17:47:15;;;;;;;2.10;0.50;;;;;;;;;;10276474;28;20334;-77
2023/08/05 17:52:16;;;;;;;0.50;0.50;;;;;;;;;;10270698;28;20314;-76
2023/08/05 17:57:18;;;;;;;0.90;0.40;;;;;;;;;;10291756;28;20293;-78
2023/08/05 18:02:19;;;;;;;1.08;0.63;;;;;;;;;;10272032;28;20241;-78
2023/08/05 18:07:20;;;;;;;0.52;0.50;;;;;;;;;;10286400;28;20308;-75
2023/08/05 18:12:21;;;;;;;1.65;0.38;;;;;;;;;;10297526;28;20273;-75
2023/08/05 18:17:22;;;;;;;1.10;0.77;;;;;;;;;;10292813;28;20211;-78
2023/08/05 18:22:23;;;;;;;0.77;0.77;;;;;;;;;;10293408;28;20235;-78
2023/08/05 18:27:24;;;;;;;0.50;0.47;;;;;;;;;;10302178;28;21009;-77
2023/08/05 18:32:25;;;;;;;1.02;0.50;;;;;;;;;;10294940;28;20322;-75
2023/08/05 18:37:27;;;;;;;0.30;0.30;;;;;;;;;;10290042;28;20215;-75
2023/08/05 18:42:28;;;;;;;0.70;0.70;;;;;;;;;;10286790;28;21486;-74
2023/08/05 18:47:29;;;;;;;0.88;0.60;;;;;;;;;;10288722;28;20218;-74
2023/08/05 18:52:30;;;;;;;0.68;0.60;;;;;;;;;;10287895;28;20425;-75
2023/08/05 18:57:31;;;;;;;0.65;0.65;;;;;;;;;;10291482;28;20222;-74
2023/08/05 19:02:32;;;;;;;0.47;0.47;;;;;;;;;;10295440;28;21473;-81
2023/08/05 19:07:33;;;;;;;1.70;0.65;;;;;;;;;;10277991;28;20403;-76
2023/08/05 19:12:34;;;;;;;0.60;0.60;;;;;;;;;;10283722;28;20238;-77
2023/08/05 19:17:36;;;;;;;1.05;0.80;;;;;;;;;;10283902;28;20302;-79
2023/08/05 19:22:37;;;;;;;1.75;0.60;;;;;;;;;;10283832;28;20231;-79
2023/08/05 19:27:38;;;;;;;0.70;0.70;;;;;;;;;;10268074;28;20356;-77
2023/08/05 19:32:39;;;;;;;0.65;0.65;;;;;;;;;;10289688;28;20223;-78
2023/08/05 19:37:40;;;;;;;0.68;0.68;;;;;;;;;;10280719;28;20223;-78
2023/08/05 19:42:41;;;;;;;0.95;0.60;;;;;;;;;;10268750;28;20349;-78
2023/08/05 19:47:43;;;;;;;0.82;0.70;;;;;;;;;;10288359;28;20223;-77
2023/08/05 19:52:44;;;;;;;0.80;0.80;;;;;;;;;;10288136;28;20214;-75
2023/08/05 19:57:45;;;;;;;0.82;0.80;;;;;;;;;;10289072;28;20305;-75
2023/08/05 20:02:46;;;;;;;2.05;0.73;;;;;;;;;;10286993;28;21104;-78
2023/08/05 20:07:47;;;;;;;0.60;0.60;;;;;;;;;;10282263;28;20252;-76
2023/08/05 20:12:49;;;;;;;1.75;0.60;;;;;;;;;;10296289;28;20696;-76
2023/08/05 20:17:51;;;;;;;2.03;0.63;;;;;;;;;;10292982;28;21473;-76
2023/08/05 20:22:52;;;;;;;0.68;0.65;;;;;;;;;;10295950;28;20848;-74
2023/08/05 20:27:53;;;;;;;1.45;0.60;;;;;;;;;;10303435;28;20225;-74
2023/08/05 20:32:55;;;;;;;0.70;0.70;;;;;;;;;;10293426;28;20474;-78
2023/08/05 20:37:56;;;;;;;1.30;0.80;;;;;;;;;;10294048;28;20837;-75
2023/08/05 20:42:57;;;;;;;2.88;0.90;;;;;;;;;;10292425;28;20365;-77
2023/08/05 20:47:58;;;;;;;1.33;0.80;;;;;;;;;;10291421;28;21202;-76
2023/08/05 20:53:00;;;;;;;0.60;0.60;;;;;;;;;;10299745;28;20262;-77
2023/08/05 20:58:01;;;;;;;1.42;0.82;;;;;;;;;;10289001;28;20222;-73
2023/08/05 21:03:03;;;;;;;0.98;0.55;;;;;;;;;;10317820;28;20239;-75
2023/08/05 21:08:06;;;;;;;0.60;0.60;;;;;;;;;;10411789;28;20296;-76
2023/08/05 21:13:07;;;;;;;0.80;0.80;;;;;;;;;;10392465;28;21022;-75
2023/08/05 21:18:08;;;;;;;1.75;0.77;;;;;;;;;;10390578;28;20206;-75
2023/08/05 21:23:09;;;;;;;1.58;0.55;;;;;;;;;;10412547;28;20599;-75
2023/08/05 21:28:11;;;;;;;0.88;0.88;;;;;;;;;;10393476;28;20736;-76
2023/08/05 21:33:12;;;;;;;0.63;0.60;;;;;;;;;;10417865;28;20214;-75
2023/08/05 21:38:13;;;;;;;1.08;0.90;;;;;;;;;;10414364;28;20199;-75
2023/08/05 21:43:18;;;;;;;0.55;0.55;;;;;;;;;;10402340;28;20298;-74
2023/08/05 21:48:19;;;;;;;0.70;0.70;;;;;;;;;;10414417;28;20266;-74
2023/08/05 21:53:21;;;;;;;1.75;0.60;;;;;;;;;;10414333;28;20211;-73
2023/08/05 21:58:22;;;;;;;0.52;0.52;;;;;;;;;;10415104;28;20215;-75
2023/08/05 22:03:23;;;;;;;0.65;0.50;;;;;;;;;;10412752;28;20230;-73
2023/08/05 22:08:24;;;;;;;1.13;0.80;;;;;;;;;;10412967;28;20233;-75
2023/08/05 22:13:25;;;;;;;0.40;0.40;;;;;;;;;;10417896;28;20246;-76
2023/08/05 22:18:26;;;;;;;0.60;0.60;;;;;;;;;;10410288;28;20357;-76
2023/08/05 22:23:27;;;;;;;0.70;0.70;;;;;;;;;;10402406;28;20215;-76
2023/08/05 22:28:28;;;;;;;1.65;0.82;;;;;;;;;;10414244;28;20215;-75
2023/08/05 22:33:29;;;;;;;0.70;0.70;;;;;;;;;;10418736;28;21243;-77
2023/08/05 22:38:30;;;;;;;1.40;1.40;;;;;;;;;;10412332;28;20722;-76
2023/08/05 22:43:31;;;;;;;1.55;0.80;;;;;;;;;;10403354;28;20215;-76
2023/08/05 22:48:32;;;;;;;1.00;0.95;;;;;;;;;;10416911;28;20261;-75
2023/08/05 22:53:33;;;;;;;0.77;0.77;;;;;;;;;;10412423;28;20226;-75
2023/08/05 22:58:34;;;;;;;0.85;0.70;;;;;;;;;;10412147;28;20207;-76
2023/08/05 23:03:35;;;;;;;0.85;0.73;;;;;;;;;;10412205;28;20333;-75
2023/08/05 23:08:37;;;;;;;0.52;0.52;;;;;;;;;;10415981;28;20225;-76
2023/08/05 23:13:38;;;;;;;0.60;0.60;;;;;;;;;;10417121;28;20257;-75
2023/08/05 23:18:39;;;;;;;0.60;0.60;;;;;;;;;;10415815;28;20219;-76
2023/08/05 23:23:40;;;;;;;1.08;0.95;;;;;;;;;;10421309;28;20229;-75
2023/08/05 23:28:41;;;;;;;0.85;0.80;;;;;;;;;;10422620;28;20215;-74
2023/08/05 23:33:42;;;;;;;1.00;1.00;;;;;;;;;;10423661;28;20222;-75
2023/08/05 23:38:43;;;;;;;1.95;0.90;;;;;;;;;;10419327;28;20222;-75
2023/08/05 23:43:44;;;;;;;0.70;0.70;;;;;;;;;;10425767;28;20207;-75
2023/08/05 23:48:45;;;;;;;1.20;1.17;;;;;;;;;;10411740;28;20228;-73
2023/08/05 23:53:47;;;;;;;0.68;0.60;;;;;;;;;;10413215;28;20216;-76
2023/08/05 23:58:48;;;;;;;1.20;0.93;;;;;;;;;;10421579;28;20298;-74
